Time;durP1;ratioP1;P1;durP2;ratioP2;P2;SDS_P1;SDS_P2;PMS_P1;PMS_P2;Temp;Humidity;BMP_temperature;BMP_pressure;BME280_temperature;BME280_humidity;BME280_pressure;Samples;Min_cycle;Max_cycle;Signal;HPM_P1;HPM_P2
2021/10/28 00:14:26;;;;;;;15.88;9.02;;;9.50;92.30;;;;;;5074987;28;20027;-36
2021/10/28 00:16:54;;;;;;;17.20;9.63;;;9.40;92.40;;;;;;5075059;28;20376;-36
2021/10/28 00:19:20;;;;;;;19.30;9.95;;;9.40;92.50;;;;;;5074931;28;20198;-37
2021/10/28 00:21:46;;;;;;;20.95;9.90;;;9.40;92.50;;;;;;5074662;28;20429;-37
2021/10/28 00:24:13;;;;;;;17.10;8.90;;;9.40;92.60;;;;;;5074712;28;20025;-38
2021/10/28 00:26:42;;;;;;;16.40;8.88;;;9.40;92.60;;;;;;5075180;28;20035;-37
2021/10/28 00:29:11;;;;;;;18.15;10.10;;;9.50;92.70;;;;;;5073918;28;20448;-37
2021/10/28 00:31:39;;;;;;;13.85;8.30;;;9.60;92.50;;;;;;5075159;28;20024;-37
2021/10/28 00:34:07;;;;;;;12.77;9.15;;;9.50;92.40;;;;;;5056707;28;20024;-37
2021/10/28 00:36:35;;;;;;;15.98;8.27;;;9.50;92.40;;;;;;5074522;28;20028;-37
2021/10/28 00:39:01;;;;;;;20.88;9.57;;;9.50;92.40;;;;;;5056303;28;20065;-37
2021/10/28 00:41:27;;;;;;;17.10;9.52;;;9.50;92.40;;;;;;5074483;28;20082;-38
2021/10/28 00:43:55;;;;;;;15.50;7.35;;;9.60;92.30;;;;;;5056829;28;20025;-37
2021/10/28 00:46:23;;;;;;;13.68;7.63;;;9.50;92.20;;;;;;5074250;28;20025;-37
2021/10/28 00:48:49;;;;;;;19.38;9.38;;;9.40;92.20;;;;;;5074066;28;20379;-37
2021/10/28 00:51:18;;;;;;;20.85;9.45;;;9.40;92.30;;;;;;5074410;28;20032;-37
2021/10/28 00:53:44;;;;;;;17.23;9.18;;;9.40;92.10;;;;;;5074182;28;20483;-37
2021/10/28 00:56:10;;;;;;;21.25;9.90;;;9.30;92.00;;;;;;5074167;28;20024;-37
2021/10/28 00:58:36;;;;;;;16.08;9.23;;;9.30;92.00;;;;;;5073851;28;20443;-38
2021/10/28 01:01:04;;;;;;;17.67;10.52;;;9.20;92.00;;;;;;5073652;28;20127;-37
2021/10/28 01:03:30;;;;;;;21.77;10.80;;;9.10;92.10;;;;;;5073652;28;20021;-38
2021/10/28 01:05:56;;;;;;;21.77;10.18;;;9.10;92.10;;;;;;5073519;28;20489;-39
2021/10/28 01:08:24;;;;;;;25.55;11.00;;;9.00;92.30;;;;;;5073782;28;20048;-36
2021/10/28 01:10:50;;;;;;;20.83;10.05;;;9.00;92.40;;;;;;5073696;28;20024;-37
2021/10/28 01:13:18;;;;;;;18.77;8.98;;;8.90;92.40;;;;;;5073750;28;20453;-37
2021/10/28 01:15:44;;;;;;;14.38;9.82;;;8.90;92.50;;;;;;5074113;28;20024;-37
2021/10/28 01:18:12;;;;;;;17.20;9.25;;;8.90;92.60;;;;;;5073362;28;20124;-37
2021/10/28 01:20:39;;;;;;;17.15;9.20;;;9.00;92.60;;;;;;5073361;28;20111;-36
2021/10/28 01:23:07;;;;;;;13.95;8.30;;;9.00;92.60;;;;;;5073236;28;20089;-36
2021/10/28 01:25:32;;;;;;;17.45;8.82;;;8.90;92.60;;;;;;5073381;28;20024;-37
2021/10/28 01:27:59;;;;;;;16.13;8.77;;;9.00;92.70;;;;;;5073049;28;20440;-37
2021/10/28 01:30:24;;;;;;;16.15;8.48;;;9.00;92.60;;;;;;5073166;28;20020;-36
2021/10/28 01:32:50;;;;;;;20.23;9.52;;;9.10;92.50;;;;;;5073045;28;20024;-36
2021/10/28 01:35:16;;;;;;;16.20;8.07;;;9.00;92.30;;;;;;5055169;28;20073;-37
2021/10/28 01:37:44;;;;;;;20.13;9.30;;;9.00;92.30;;;;;;5073239;28;20032;-36
2021/10/28 01:40:10;;;;;;;14.23;7.32;;;9.00;92.30;;;;;;5072948;28;20112;-36
2021/10/28 01:42:39;;;;;;;16.83;7.97;;;9.00;92.20;;;;;;5073020;28;20024;-37
2021/10/28 01:45:05;;;;;;;13.82;8.30;;;8.90;92.00;;;;;;5073254;28;20033;-37
2021/10/28 01:47:31;;;;;;;15.57;8.48;;;8.80;92.00;;;;;;5054977;28;20133;-36
2021/10/28 01:49:57;;;;;;;13.00;7.88;;;8.80;92.10;;;;;;5072984;28;20017;-36
2021/10/28 01:52:22;;;;;;;13.85;8.02;;;8.80;92.00;;;;;;5072924;28;20090;-37
2021/10/28 01:54:48;;;;;;;10.18;7.10;;;8.70;92.00;;;;;;5073104;28;20028;-37
2021/10/28 01:57:19;;;;;;;17.75;8.57;;;8.70;92.20;;;;;;5073069;28;20029;-36
2021/10/28 01:59:44;;;;;;;11.60;7.95;;;8.70;92.10;;;;;;5054743;28;20035;-37
2021/10/28 02:02:10;;;;;;;11.95;7.50;;;8.60;92.20;;;;;;5072822;28;20100;-36
2021/10/28 02:04:36;;;;;;;16.60;8.52;;;8.50;92.30;;;;;;5072775;28;20106;-37
2021/10/28 02:07:01;;;;;;;14.85;8.40;;;8.50;92.30;;;;;;5072602;28;20042;-36
2021/10/28 02:09:27;;;;;;;11.48;8.02;;;8.50;92.50;;;;;;5072721;28;20100;-36
2021/10/28 02:11:53;;;;;;;12.98;8.68;;;8.40;92.50;;;;;;5072681;28;20017;-36
2021/10/28 02:14:18;;;;;;;16.92;8.52;;;8.40;92.50;;;;;;5073115;28;20042;-37
2021/10/28 02:16:44;;;;;;;13.10;7.55;;;8.40;92.40;;;;;;5072659;28;20025;-37
2021/10/28 02:19:10;;;;;;;16.60;9.15;;;8.40;92.40;;;;;;5072661;28;20025;-36
2021/10/28 02:21:36;;;;;;;17.35;7.68;;;8.30;92.40;;;;;;5054572;28;20032;-38
2021/10/28 02:24:02;;;;;;;13.00;8.38;;;8.30;92.50;;;;;;5072807;28;20423;-36
2021/10/28 02:26:27;;;;;;;18.65;9.88;;;8.30;92.40;;;;;;5072494;28;20473;-36
2021/10/28 02:28:56;;;;;;;11.38;7.50;;;8.30;92.40;;;;;;5072424;28;20123;-36
2021/10/28 02:31:22;;;;;;;11.90;7.93;;;8.30;92.50;;;;;;5072457;28;20050;-36
2021/10/28 02:33:48;;;;;;;17.20;7.72;;;8.30;92.40;;;;;;5072454;28;20365;-36
2021/10/28 02:36:15;;;;;;;15.40;8.52;;;8.20;92.40;;;;;;5072602;28;20020;-36
2021/10/28 02:38:42;;;;;;;14.18;8.50;;;8.20;92.60;;;;;;5072662;28;20039;-36
2021/10/28 02:41:08;;;;;;;14.30;8.18;;;8.20;92.60;;;;;;5072322;28;20112;-36
2021/10/28 02:43:34;;;;;;;14.15;7.63;;;8.20;92.60;;;;;;5072467;28;20104;-37
2021/10/28 02:46:00;;;;;;;11.13;7.68;;;8.20;92.60;;;;;;5072605;28;20474;-36
2021/10/28 02:48:26;;;;;;;11.05;7.65;;;8.10;92.60;;;;;;5072092;28;20039;-36
2021/10/28 02:50:52;;;;;;;13.98;7.72;;;8.10;92.60;;;;;;5072371;28;20024;-36
2021/10/28 02:53:17;;;;;;;10.90;6.78;;;8.10;92.50;;;;;;5074300;28;20032;-36
2021/10/28 02:55:43;;;;;;;14.82;8.05;;;8.10;92.60;;;;;;5076385;28;20066;-37
2021/10/28 02:58:09;;;;;;;14.65;7.25;;;8.00;92.60;;;;;;5076159;28;20039;-36
2021/10/28 03:00:34;;;;;;;13.60;8.02;;;8.00;92.60;;;;;;5076469;28;20032;-37
2021/10/28 03:03:00;;;;;;;13.65;7.53;;;8.00;92.70;;;;;;5076232;28;20032;-36
2021/10/28 03:05:27;;;;;;;13.55;8.45;;;8.00;92.70;;;;;;5075923;28;20044;-36
2021/10/28 03:07:54;;;;;;;14.43;9.10;;;8.00;92.80;;;;;;5076271;28;20036;-36
2021/10/28 03:10:19;;;;;;;11.73;6.97;;;7.90;92.70;;;;;;5076131;28;20112;-36
2021/10/28 03:12:47;;;;;;;17.67;7.28;;;7.90;92.80;;;;;;5076385;28;20110;-36
2021/10/28 03:15:14;;;;;;;13.80;8.38;;;7.90;92.80;;;;;;5076116;28;20192;-36
2021/10/28 03:25:44;;;;;;;14.13;8.57;;;7.80;93.00;;;;;;5076358;28;20372;-36
2021/10/28 03:28:27;;;;;;;15.25;7.78;;;7.80;93.00;;;;;;5075898;28;20024;-36
2021/10/28 03:30:53;;;;;;;14.95;7.65;;;7.80;93.00;;;;;;5076025;28;20028;-37
2021/10/28 03:33:22;;;;;;;17.75;9.02;;;7.80;93.10;;;;;;5075672;28;20021;-36
2021/10/28 03:35:49;;;;;;;18.63;9.13;;;7.80;93.20;;;;;;5075768;28;20033;-36
2021/10/28 03:38:23;;;;;;;14.57;9.65;;;7.80;93.30;;;;;;5075348;28;20017;-36
2021/10/28 03:41:53;;;;;;;16.95;9.35;;;7.80;93.30;;;;;;5058755;28;20025;-36
2021/10/28 03:44:33;;;;;;;16.88;9.80;;;7.80;93.40;;;;;;5064430;28;20047;-36
2021/10/28 04:30:05;;;;;;;16.50;9.05;;;7.80;93.40;;;;;;5075533;28;20031;-37
2021/10/28 04:32:32;;;;;;;17.23;9.52;;;7.80;93.50;;;;;;5074847;28;20033;-38
2021/10/28 04:34:57;;;;;;;17.98;10.30;;;7.80;93.40;;;;;;5074767;28;20108;-38
2021/10/28 04:37:23;;;;;;;12.75;9.13;;;7.80;93.40;;;;;;5056692;28;20528;-37
2021/10/28 04:39:49;;;;;;;18.33;10.05;;;7.80;93.40;;;;;;5075045;28;20083;-37
2021/10/28 04:42:15;;;;;;;17.83;11.15;;;7.80;93.40;;;;;;5074934;28;20107;-37
2021/10/28 04:44:41;;;;;;;19.63;10.60;;;7.80;93.40;;;;;;5075016;28;20025;-37
2021/10/28 04:47:08;;;;;;;20.20;9.98;;;7.80;93.40;;;;;;5074543;28;20031;-37
2021/10/28 04:49:34;;;;;;;16.48;10.57;;;7.80;93.50;;;;;;5074311;28;20028;-37
2021/10/28 04:51:59;;;;;;;22.38;10.40;;;7.80;93.50;;;;;;5074831;28;20365;-39
2021/10/28 04:54:25;;;;;;;16.75;9.25;;;7.70;93.40;;;;;;5074450;28;20086;-37
2021/10/28 04:56:50;;;;;;;18.70;10.65;;;7.70;93.50;;;;;;5074569;28;20017;-37
2021/10/28 04:59:16;;;;;;;19.55;10.43;;;7.70;93.60;;;;;;5074577;28;20040;-37
2021/10/28 05:01:43;;;;;;;19.20;10.23;;;7.70;93.60;;;;;;5074727;28;20043;-37
2021/10/28 05:04:09;;;;;;;21.60;11.05;;;7.70;93.60;;;;;;5074562;28;20036;-37
2021/10/28 05:06:34;;;;;;;22.83;11.43;;;7.70;93.60;;;;;;5073866;28;20048;-37
2021/10/28 05:09:00;;;;;;;18.92;10.50;;;7.70;93.60;;;;;;5074084;28;20031;-37
2021/10/28 05:11:28;;;;;;;21.83;11.98;;;7.70;93.50;;;;;;5074391;28;20406;-37
2021/10/28 05:13:53;;;;;;;31.95;12.35;;;7.70;93.50;;;;;;5074249;28;20033;-37
2021/10/28 05:16:20;;;;;;;20.67;10.50;;;7.70;93.50;;;;;;5073244;28;20468;-37
2021/10/28 05:18:46;;;;;;;18.58;10.77;;;7.70;93.30;;;;;;5073979;28;20094;-37
2021/10/28 05:21:14;;;;;;;21.83;10.73;;;7.70;93.20;;;;;;5074096;28;20032;-37
2021/10/28 05:23:40;;;;;;;22.15;10.98;;;7.70;93.30;;;;;;5056035;28;20024;-37
2021/10/28 05:26:07;;;;;;;23.58;10.88;;;7.80;93.50;;;;;;5055893;28;20078;-38
2021/10/28 05:28:34;;;;;;;19.17;11.48;;;7.80;93.50;;;;;;5056106;28;20389;-37
2021/10/28 05:31:00;;;;;;;21.85;11.25;;;7.80;93.50;;;;;;5055776;28;20525;-38
2021/10/28 05:33:26;;;;;;;17.98;11.50;;;7.80;93.50;;;;;;5073828;28;20032;-37
2021/10/28 05:35:52;;;;;;;20.20;10.65;;;7.80;93.40;;;;;;5055633;28;20036;-37
2021/10/28 05:38:18;;;;;;;19.38;10.35;;;7.70;93.40;;;;;;5073421;28;20404;-38
2021/10/28 05:40:44;;;;;;;20.60;11.60;;;7.70;93.40;;;;;;5073422;28;20032;-38
2021/10/28 05:43:10;;;;;;;17.88;10.93;;;7.70;93.40;;;;;;5073393;28;20029;-37
2021/10/28 05:45:36;;;;;;;21.45;11.77;;;7.60;93.40;;;;;;5038873;28;20468;-37
2021/10/28 05:48:03;;;;;;;19.23;12.07;;;7.60;93.40;;;;;;5073424;28;20029;-37
2021/10/28 05:50:29;;;;;;;21.58;12.07;;;7.60;93.40;;;;;;5055247;28;20020;-37
2021/10/28 05:52:58;;;;;;;24.60;13.57;;;7.60;93.50;;;;;;5073100;28;20021;-37
2021/10/28 05:55:24;;;;;;;21.55;13.18;;;7.60;93.50;;;;;;5072787;28;20047;-37
2021/10/28 05:57:52;;;;;;;24.33;13.38;;;7.70;93.60;;;;;;5072892;28;20052;-37
2021/10/28 06:00:19;;;;;;;22.52;12.30;;;7.70;93.50;;;;;;5072764;28;20032;-37
2021/10/28 06:02:45;;;;;;;25.13;12.68;;;7.70;93.50;;;;;;5039106;28;20472;-37
2021/10/28 06:05:11;;;;;;;22.42;12.15;;;7.70;93.50;;;;;;5054694;28;20078;-38
2021/10/28 06:07:37;;;;;;;25.92;13.68;;;7.70;93.50;;;;;;5072820;28;20028;-38
2021/10/28 06:10:03;;;;;;;22.70;13.23;;;7.80;93.50;;;;;;5072830;28;20465;-38
2021/10/28 06:12:34;;;;;;;19.85;12.18;;;7.80;93.30;;;;;;5073087;28;20386;-37
2021/10/28 06:15:00;;;;;;;26.92;14.65;;;7.70;93.10;;;;;;5072635;28;20148;-37
2021/10/28 06:17:34;;;;;;;24.92;12.50;;;7.70;93.20;;;;;;5072915;28;20082;-46
2021/10/28 06:20:01;;;;;;;21.50;12.35;;;7.60;93.30;;;;;;5072531;28;20059;-37
2021/10/28 06:22:28;;;;;;;22.60;12.75;;;7.70;93.30;;;;;;5072399;28;20025;-37
2021/10/28 06:24:54;;;;;;;29.35;13.32;;;7.70;93.40;;;;;;5072427;28;20378;-36
2021/10/28 06:27:20;;;;;;;24.23;14.13;;;7.60;93.30;;;;;;5071551;28;20032;-36
2021/10/28 06:29:46;;;;;;;24.00;14.38;;;7.60;93.30;;;;;;5054159;28;20031;-36
2021/10/28 06:32:13;;;;;;;23.42;13.98;;;7.60;93.40;;;;;;5054346;28;20025;-36
2021/10/28 06:34:42;;;;;;;29.35;14.90;;;7.60;93.40;;;;;;5071582;28;20097;-36
2021/10/28 06:37:09;;;;;;;29.33;14.80;;;7.70;93.40;;;;;;5072164;28;20123;-37
2021/10/28 06:39:34;;;;;;;21.67;12.25;;;7.70;93.40;;;;;;5072593;28;20082;-37
2021/10/28 06:42:00;;;;;;;32.30;13.18;;;7.80;93.30;;;;;;5072144;28;20487;-37
2021/10/28 06:44:26;;;;;;;33.55;14.00;;;7.80;93.20;;;;;;5072931;28;20095;-37
2021/10/28 06:46:52;;;;;;;22.23;13.25;;;7.80;93.20;;;;;;5072050;28;20511;-37
2021/10/28 06:49:19;;;;;;;26.13;14.70;;;7.90;93.00;;;;;;5054230;28;20036;-38
2021/10/28 06:51:45;;;;;;;29.80;16.13;;;8.00;93.00;;;;;;5072962;28;20540;-38
2021/10/28 07:04:43;;;;;;;31.70;15.90;;;8.30;92.90;;;;;;5072383;28;20110;-36
2021/10/28 07:07:09;;;;;;;29.83;15.82;;;8.50;92.90;;;;;;5053663;28;20075;-36
2021/10/28 07:09:42;;;;;;;33.15;16.42;;;8.50;92.80;;;;;;5071766;28;20124;-37
2021/10/28 07:14:44;;;;;;;29.98;17.75;;;8.60;92.50;;;;;;5071885;28;20017;-37
2021/10/28 08:05:40;;;;;;;36.30;17.30;;;11.40;86.70;;;;;;5074923;28;20486;-38
2021/10/28 08:29:35;;;;;;;18.65;11.35;;;16.20;67.80;;;;;;5074436;28;20499;-37
2021/10/28 08:32:03;;;;;;;15.88;10.18;;;16.20;67.80;;;;;;5074966;28;20059;-38
2021/10/28 08:34:33;;;;;;;17.30;9.40;;;16.80;64.10;;;;;;5074653;28;20016;-36
2021/10/28 08:37:10;;;;;;;20.38;11.32;;;16.80;64.10;;;;;;5074664;28;20024;-37
2021/10/28 08:39:37;;;;;;;16.98;10.75;;;17.30;62.90;;;;;;5074641;28;20090;-37
2021/10/28 08:42:09;;;;;;;19.35;11.50;;;17.30;61.50;;;;;;5074308;28;20099;-37
2021/10/28 08:44:39;;;;;;;15.13;9.02;;;18.00;60.30;;;;;;5074985;28;20016;-36
2021/10/28 08:47:06;;;;;;;19.02;10.02;;;17.30;61.00;;;;;;5074079;28;20414;-37
2021/10/28 08:49:38;;;;;;;18.50;9.85;;;17.30;61.80;;;;;;5073525;28;20116;-37
2021/10/28 09:25:45;;;;;;;10.13;5.72;;;16.70;60.50;;;;;;5073665;28;20048;-38
2021/10/28 09:28:39;;;;;;;10.13;5.90;;;16.50;61.10;;;;;;5073688;28;20037;-37
2021/10/28 09:31:15;;;;;;;11.25;6.57;;;16.80;59.90;;;;;;5073428;28;20017;-38
2021/10/28 09:48:33;;;;;;;6.97;4.85;;;17.70;57.40;;;;;;5072233;28;20049;-38
2021/10/28 09:51:01;;;;;;;9.70;4.80;;;17.50;57.30;;;;;;5072800;28;20024;-38
2021/10/28 09:53:44;;;;;;;10.95;5.57;;;17.30;58.70;;;;;;5072865;28;20123;-37
2021/10/28 09:59:03;;;;;;;9.82;5.50;;;16.30;61.20;;;;;;5072978;28;20113;-36
2021/10/28 10:01:45;;;;;;;10.82;4.00;;;16.00;62.60;;;;;;5072737;28;20368;-38
2021/10/28 10:04:12;;;;;;;9.45;4.70;;;15.80;62.90;;;;;;5055857;28;20024;-39
2021/10/28 10:06:41;;;;;;;6.50;4.18;;;16.00;62.20;;;;;;5071649;28;20082;-39
2021/10/28 10:09:07;;;;;;;8.52;4.70;;;16.30;61.20;;;;;;5071655;28;20427;-37
2021/10/28 10:11:33;;;;;;;10.57;5.00;;;15.90;62.20;;;;;;5054572;28;20020;-38
2021/10/28 10:14:00;;;;;;;7.03;4.25;;;15.70;62.60;;;;;;5072808;28;20028;-38
2021/10/28 10:16:26;;;;;;;5.13;3.60;;;15.70;63.10;;;;;;5072461;28;20096;-38
2021/10/28 10:18:52;;;;;;;8.55;4.05;;;15.70;63.70;;;;;;5072068;28;20028;-38
2021/10/28 10:24:24;;;;;;;11.32;4.78;;;15.80;62.30;;;;;;5072472;28;20032;-38
2021/10/28 10:30:29;;;;;;;6.90;4.00;;;16.00;61.40;;;;;;5056691;28;20054;-39
2021/10/28 12:01:45;;;;;;;6.38;3.47;;;17.30;55.20;;;;;;5075487;28;20032;-39
2021/10/28 12:44:25;;;;;;;3.95;1.80;;;18.10;51.30;;;;;;5075872;28;20063;-50
2021/10/28 12:47:13;;;;;;;4.18;2.08;;;18.10;50.70;;;;;;5074449;28;20036;-46
2021/10/28 12:52:48;;;;;;;3.60;1.92;;;17.80;49.80;;;;;;5074362;28;20553;-46
2021/10/28 12:55:37;;;;;;;6.30;2.55;;;17.80;50.70;;;;;;5073840;28;20104;-48
2021/10/28 13:03:59;;;;;;;5.07;2.50;;;18.10;51.90;;;;;;5074138;28;20024;-46
2021/10/28 13:37:49;;;;;;;5.43;2.20;;;18.30;47.80;;;;;;5072737;28;20068;-52
2021/10/28 13:55:17;;;;;;;5.07;2.97;;;18.10;48.00;;;;;;5073663;28;20020;-49
2021/10/28 14:27:41;;;;;;;3.70;1.80;;;17.60;50.40;;;;;;5072421;28;20472;-47
2021/10/28 15:30:01;;;;;;;6.95;3.70;;;16.50;58.20;;;;;;5071495;28;20035;-54
2021/10/28 15:33:17;;;;;;;6.25;3.50;;;16.30;58.80;;;;;;5053270;28;20020;-47
2021/10/28 15:41:18;;;;;;;6.90;3.85;;;16.00;60.50;;;;;;5048476;28;20025;-47
2021/10/28 16:21:52;;;;;;;8.20;5.57;;;14.80;67.50;;;;;;5075470;28;20495;-48
2021/10/28 16:24:27;;;;;;;7.45;5.25;;;14.70;67.80;;;;;;5056903;28;20433;-50
2021/10/28 16:26:54;;;;;;;14.52;7.20;;;14.70;67.70;;;;;;5057469;28;20032;-50
2021/10/28 16:29:21;;;;;;;8.38;5.63;;;14.50;68.60;;;;;;5057078;28;20111;-49
2021/10/28 16:31:47;;;;;;;9.32;6.05;;;14.40;69.00;;;;;;5056081;28;20571;-51
2021/10/28 16:34:15;;;;;;;12.90;6.63;;;14.30;69.70;;;;;;5075122;28;20373;-52
2021/10/28 16:36:41;;;;;;;13.57;7.28;;;14.20;69.90;;;;;;5075335;28;20445;-50
2021/10/28 16:39:10;;;;;;;8.43;5.80;;;14.00;70.40;;;;;;5056848;28;20035;-49
2021/10/28 16:41:39;;;;;;;9.00;4.93;;;13.90;71.00;;;;;;5074562;28;20028;-48
2021/10/28 16:44:05;;;;;;;10.52;5.78;;;13.80;71.50;;;;;;5074403;28;20032;-46
2021/10/28 16:46:33;;;;;;;10.45;6.10;;;13.80;71.70;;;;;;5074872;28;20024;-49
2021/10/28 16:48:59;;;;;;;11.40;7.25;;;13.90;71.60;;;;;;5056297;28;20115;-48
2021/10/28 16:51:25;;;;;;;11.55;7.95;;;14.00;71.50;;;;;;5074059;28;20029;-47
2021/10/28 16:53:52;;;;;;;12.20;7.72;;;14.00;71.60;;;;;;5074940;28;20027;-51
2021/10/28 16:56:18;;;;;;;15.48;7.45;;;14.00;71.90;;;;;;5073993;28;20029;-48
2021/10/28 16:58:44;;;;;;;13.10;7.88;;;13.80;72.60;;;;;;5074212;28;20073;-48
2021/10/28 17:01:10;;;;;;;11.45;7.85;;;13.50;73.30;;;;;;5075301;28;20024;-48
2021/10/28 17:03:36;;;;;;;11.18;8.90;;;13.50;73.50;;;;;;5056451;28;20480;-51
2021/10/28 17:06:02;;;;;;;16.73;9.35;;;13.40;74.20;;;;;;5074303;28;20056;-50
2021/10/28 17:08:29;;;;;;;13.27;8.18;;;13.30;74.60;;;;;;5055771;28;20024;-50
2021/10/28 17:10:56;;;;;;;13.30;8.88;;;13.30;74.60;;;;;;5073251;28;20013;-49
2021/10/28 17:13:22;;;;;;;15.00;8.35;;;13.30;74.90;;;;;;5073010;28;20032;-47
2021/10/28 17:15:48;;;;;;;10.80;8.10;;;13.40;74.60;;;;;;5073332;28;20337;-48
2021/10/28 17:18:13;;;;;;;13.55;8.15;;;13.20;75.20;;;;;;5074156;28;20057;-47
2021/10/28 17:20:39;;;;;;;11.57;8.25;;;13.10;75.60;;;;;;5073768;28;20029;-50
2021/10/28 17:23:09;;;;;;;14.60;8.95;;;13.00;76.20;;;;;;5073276;28;20017;-46
2021/10/28 17:25:40;;;;;;;14.30;8.45;;;12.90;76.60;;;;;;5073377;28;20043;-48
2021/10/28 17:28:09;;;;;;;15.25;10.30;;;12.90;76.90;;;;;;5073776;28;20029;-48
2021/10/28 17:30:34;;;;;;;14.70;9.02;;;12.90;76.90;;;;;;5055372;28;20024;-48
2021/10/28 17:33:01;;;;;;;18.17;10.73;;;12.90;77.00;;;;;;5072834;28;20357;-49
2021/10/28 17:35:27;;;;;;;17.30;11.27;;;13.00;76.80;;;;;;5073222;28;20510;-50
2021/10/28 17:37:52;;;;;;;17.05;10.52;;;12.90;76.90;;;;;;5073089;28;20024;-48
2021/10/28 17:40:18;;;;;;;22.13;13.13;;;12.80;77.00;;;;;;5073037;28;20039;-47
2021/10/28 17:42:45;;;;;;;19.83;11.52;;;12.80;77.30;;;;;;5055367;28;20024;-48
2021/10/28 17:45:14;;;;;;;16.63;10.30;;;12.70;77.80;;;;;;5073891;28;20029;-47
2021/10/28 17:47:40;;;;;;;17.58;10.23;;;12.80;77.70;;;;;;5073492;28;20032;-48
2021/10/28 17:50:07;;;;;;;16.35;11.65;;;12.70;77.50;;;;;;5073372;28;20036;-48
2021/10/28 17:52:33;;;;;;;20.60;11.52;;;12.70;77.40;;;;;;5055004;28;20032;-49
2021/10/28 17:55:00;;;;;;;21.40;12.57;;;12.60;78.00;;;;;;5073381;28;20340;-47
2021/10/28 17:57:28;;;;;;;19.45;11.60;;;12.50;78.00;;;;;;5073575;28;20040;-47
2021/10/28 17:59:53;;;;;;;22.40;11.20;;;12.50;78.30;;;;;;5073534;28;20104;-49
2021/10/28 18:02:19;;;;;;;21.27;12.70;;;12.40;78.30;;;;;;5073115;28;20112;-48
2021/10/28 18:04:45;;;;;;;18.92;10.77;;;12.40;78.60;;;;;;5073303;28;20025;-47
2021/10/28 18:07:11;;;;;;;20.05;11.55;;;12.40;78.20;;;;;;5072952;28;20052;-48
2021/10/28 18:09:40;;;;;;;18.52;13.18;;;12.40;78.20;;;;;;5072949;28;20044;-50
2021/10/28 18:12:06;;;;;;;21.70;12.57;;;12.30;78.30;;;;;;5073477;28;20431;-48
2021/10/28 18:14:31;;;;;;;20.40;12.23;;;12.30;78.30;;;;;;5073472;28;20024;-50
2021/10/28 18:16:58;;;;;;;18.00;11.30;;;12.30;78.10;;;;;;5073067;28;20130;-47
2021/10/28 18:19:24;;;;;;;18.10;11.55;;;12.30;78.40;;;;;;5073002;28;20028;-50
2021/10/28 18:21:54;;;;;;;21.42;11.40;;;12.30;78.40;;;;;;5054917;28;20035;-46
2021/10/28 18:24:25;;;;;;;22.05;12.48;;;12.20;78.80;;;;;;5054944;28;20024;-51
2021/10/28 18:26:51;;;;;;;17.58;11.07;;;12.10;79.10;;;;;;5073716;28;20047;-48
2021/10/28 18:29:17;;;;;;;18.30;11.77;;;12.00;79.00;;;;;;5073504;28;20032;-50
2021/10/28 18:31:43;;;;;;;20.05;12.70;;;12.00;79.10;;;;;;5073030;28;20059;-46
2021/10/28 18:34:09;;;;;;;25.88;13.82;;;11.90;79.00;;;;;;5073100;28;20089;-47
2021/10/28 18:36:36;;;;;;;19.52;12.75;;;12.00;79.00;;;;;;5054663;28;20035;-48
2021/10/28 18:39:04;;;;;;;20.08;12.02;;;11.90;79.10;;;;;;5055353;28;20059;-49
2021/10/28 18:41:30;;;;;;;21.75;12.82;;;11.90;78.90;;;;;;5054807;28;20336;-48
2021/10/28 18:43:56;;;;;;;19.92;12.93;;;11.80;79.20;;;;;;5072630;28;20021;-49
2021/10/28 18:46:23;;;;;;;23.45;13.40;;;11.80;79.40;;;;;;5072707;28;20058;-48
2021/10/28 18:48:51;;;;;;;24.33;14.10;;;11.80;79.20;;;;;;5072572;28;20155;-47
2021/10/28 18:51:18;;;;;;;24.40;14.88;;;11.80;79.20;;;;;;5072492;28;20050;-49
2021/10/28 18:53:45;;;;;;;22.27;13.30;;;11.80;79.30;;;;;;5072820;28;20595;-48
2021/10/28 18:56:12;;;;;;;22.92;13.63;;;11.70;79.40;;;;;;5054725;28;20016;-48
2021/10/28 18:58:38;;;;;;;22.10;15.20;;;11.70;79.90;;;;;;5072835;28;20373;-48
2021/10/28 19:01:04;;;;;;;19.95;13.70;;;11.70;79.70;;;;;;5037963;28;20032;-46
2021/10/28 19:03:30;;;;;;;21.02;14.02;;;11.50;80.00;;;;;;5072459;28;20025;-47
2021/10/28 19:05:57;;;;;;;20.65;14.60;;;11.50;80.40;;;;;;5072218;28;20040;-47
2021/10/28 19:08:24;;;;;;;21.88;13.98;;;11.60;80.00;;;;;;5072547;28;20032;-48
2021/10/28 19:10:50;;;;;;;21.25;13.50;;;11.60;80.00;;;;;;5054750;28;20375;-46
2021/10/28 19:13:16;;;;;;;23.73;14.43;;;11.50;80.20;;;;;;5072487;28;20465;-49
2021/10/28 19:15:42;;;;;;;25.52;15.68;;;11.50;80.00;;;;;;5072371;28;20024;-46
2021/10/28 19:18:08;;;;;;;26.48;15.95;;;11.50;79.90;;;;;;5072475;28;20376;-50
2021/10/28 19:20:35;;;;;;;23.60;15.00;;;11.50;80.20;;;;;;5072434;28;20108;-47
2021/10/28 19:23:01;;;;;;;24.92;15.07;;;11.40;80.40;;;;;;5072842;28;20028;-46
2021/10/28 19:25:27;;;;;;;24.25;13.60;;;11.30;80.40;;;;;;5073048;28;20025;-47
2021/10/28 19:27:56;;;;;;;22.23;14.10;;;11.20;80.90;;;;;;5054642;28;20039;-47
2021/10/28 19:32:58;;;;;;;26.23;14.98;;;11.20;81.20;;;;;;5073317;28;20470;-48
2021/10/28 19:35:26;;;;;;;26.95;14.52;;;11.10;81.10;;;;;;5074149;28;20054;-48
2021/10/28 19:48:19;;;;;;;26.08;14.65;;;11.00;81.30;;;;;;5076193;28;20020;-47
2021/10/28 19:50:46;;;;;;;24.70;15.07;;;10.90;81.40;;;;;;5075678;28;20020;-48
2021/10/28 19:53:13;;;;;;;23.65;15.00;;;10.90;81.50;;;;;;5076118;28;20021;-38
2021/10/28 19:55:40;;;;;;;27.52;15.68;;;11.00;81.30;;;;;;5075860;28;20090;-37
2021/10/28 19:58:10;;;;;;;23.52;14.23;;;10.80;81.70;;;;;;5057869;28;20090;-37
2021/10/28 20:00:47;;;;;;;25.00;15.55;;;10.80;81.80;;;;;;5076095;28;20119;-38
2021/10/28 20:13:06;;;;;;;25.58;15.80;;;10.70;82.20;;;;;;5075905;28;20025;-39
2021/10/28 20:22:05;;;;;;;30.60;16.00;;;10.50;82.80;;;;;;5075746;28;20426;-37
2021/10/28 20:24:31;;;;;;;24.88;16.13;;;10.50;82.90;;;;;;5058008;28;20024;-37
2021/10/28 20:26:57;;;;;;;29.30;17.95;;;10.50;82.80;;;;;;5075459;28;20389;-37
2021/10/28 20:29:23;;;;;;;23.98;14.68;;;10.50;82.90;;;;;;5057343;28;20075;-38
2021/10/28 20:31:49;;;;;;;26.20;15.98;;;10.50;82.60;;;;;;5057441;28;20110;-37
2021/10/28 20:34:48;;;;;;;30.42;16.65;;;10.50;82.60;;;;;;5057212;28;20033;-37
2021/10/28 20:37:05;;;;;;;27.90;15.82;;;10.50;82.60;;;;;;5074513;28;20154;-37
2021/10/28 20:39:40;;;;;;;22.45;15.32;;;10.50;82.60;;;;;;5040821;28;20036;-41
2021/10/28 20:42:07;;;;;;;24.42;14.85;;;10.40;82.40;;;;;;5076173;28;20036;-37
2021/10/28 20:44:33;;;;;;;25.90;14.88;;;10.40;82.60;;;;;;5075009;28;20036;-38
2021/10/28 20:47:00;;;;;;;26.02;14.32;;;10.40;82.50;;;;;;5073941;28;20487;-38
2021/10/28 20:49:26;;;;;;;26.88;16.40;;;10.40;82.30;;;;;;5040428;28;20029;-38
2021/10/28 20:51:52;;;;;;;28.17;15.90;;;10.60;81.80;;;;;;5056608;28;20120;-37
2021/10/28 20:54:21;;;;;;;26.13;14.75;;;10.70;81.20;;;;;;5074961;28;20094;-36
2021/10/28 20:56:47;;;;;;;26.83;15.88;;;10.60;81.80;;;;;;5075134;28;20028;-37
2021/10/28 20:59:13;;;;;;;26.70;14.95;;;10.50;82.00;;;;;;5075527;28;20060;-37
2021/10/28 21:01:38;;;;;;;29.63;15.75;;;10.30;82.40;;;;;;5074572;28;20060;-37
2021/10/28 21:04:04;;;;;;;22.05;15.30;;;10.30;82.60;;;;;;5074661;28;20123;-37
2021/10/28 21:06:30;;;;;;;25.15;15.57;;;10.30;82.90;;;;;;5074141;28;20044;-38
2021/10/28 21:09:00;;;;;;;25.05;15.23;;;10.20;82.90;;;;;;5074659;28;20067;-37
2021/10/28 21:11:26;;;;;;;25.05;14.70;;;10.20;83.00;;;;;;5057207;28;20056;-37
2021/10/28 21:13:53;;;;;;;21.02;13.88;;;10.20;82.90;;;;;;5074510;28;20491;-37
2021/10/28 21:16:19;;;;;;;24.55;14.77;;;10.30;82.80;;;;;;5074569;28;20021;-38
2021/10/28 21:18:45;;;;;;;25.10;14.20;;;10.40;82.10;;;;;;5056257;28;20031;-38
2021/10/28 21:21:10;;;;;;;32.80;13.35;;;10.20;82.10;;;;;;5074285;28;20110;-38
2021/10/28 21:23:36;;;;;;;22.58;13.43;;;10.20;82.60;;;;;;5074566;28;20462;-37
2021/10/28 21:26:02;;;;;;;24.25;13.93;;;10.10;82.70;;;;;;5056215;28;20035;-37
2021/10/28 21:28:28;;;;;;;20.77;12.95;;;10.00;82.80;;;;;;5056012;28;20025;-38
2021/10/28 21:30:54;;;;;;;23.90;14.18;;;10.00;83.00;;;;;;5074158;28;20080;-37
2021/10/28 21:33:20;;;;;;;23.38;14.35;;;10.20;82.40;;;;;;5074319;28;20024;-38
2021/10/28 21:35:46;;;;;;;23.75;14.35;;;10.00;82.90;;;;;;5074108;28;20025;-38
2021/10/28 21:38:12;;;;;;;21.77;13.85;;;9.90;83.10;;;;;;5055970;28;20384;-38
2021/10/28 21:40:38;;;;;;;27.75;14.43;;;9.80;83.60;;;;;;5074162;28;20028;-37
2021/10/28 21:43:04;;;;;;;24.50;14.25;;;9.80;83.80;;;;;;5074394;28;20461;-37
2021/10/28 21:45:30;;;;;;;21.50;12.70;;;9.80;83.80;;;;;;5074221;28;20024;-37
2021/10/28 21:47:57;;;;;;;20.05;13.23;;;9.80;83.80;;;;;;5073686;28;20051;-38
2021/10/28 21:50:24;;;;;;;28.00;14.73;;;9.80;83.80;;;;;;5073871;28;20020;-37
2021/10/28 21:52:54;;;;;;;21.63;12.82;;;9.80;84.00;;;;;;5073731;28;20127;-38